Time;durP1;ratioP1;P1;durP2;ratioP2;P2;SDS_P1;SDS_P2;PMS_P1;PMS_P2;Temp;Humidity;BMP_temperature;BMP_pressure;BME280_temperature;BME280_humidity;BME280_pressure;Samples;Min_cycle;Max_cycle;Signal;HPM_P1;HPM_P2
2021/12/12 00:05:44;;;;;;;2.50;2.30;;;;;;;18.86;44.15;97378.00;10532724;28;20055;-55
2021/12/12 00:11:08;;;;;;;2.90;2.60;;;;;;;18.84;44.10;97383.69;10532824;28;20051;-56
2021/12/12 00:16:27;;;;;;;2.63;2.30;;;;;;;18.81;43.95;97383.50;10532841;28;20051;-56
2021/12/12 00:21:50;;;;;;;2.92;2.20;;;;;;;18.79;43.96;97386.47;10532475;28;20044;-55
2021/12/12 00:27:09;;;;;;;2.30;2.10;;;;;;;18.78;43.79;97385.69;10533694;28;20515;-56
2021/12/12 00:32:35;;;;;;;2.42;2.13;;;;;;;18.78;43.86;97393.78;10545366;28;20036;-56
2021/12/12 00:37:59;;;;;;;2.58;2.38;;;;;;;18.75;43.97;97401.69;10517054;28;20048;-56
2021/12/12 00:43:24;;;;;;;3.30;2.33;;;;;;;18.74;43.82;97406.28;10521581;28;20113;-56
2021/12/12 00:48:45;;;;;;;3.67;2.50;;;;;;;18.73;43.92;97410.06;10497152;28;20059;-56
2021/12/12 00:54:05;;;;;;;2.30;2.10;;;;;;;18.72;43.91;97426.59;10498699;28;20052;-56
2021/12/12 00:59:26;;;;;;;2.20;2.00;;;;;;;18.70;43.82;97426.91;10496646;28;20048;-56
2021/12/12 01:04:49;;;;;;;2.40;2.17;;;;;;;18.71;44.01;97422.28;10493786;28;20627;-56
2021/12/12 01:10:18;;;;;;;3.00;2.20;;;;;;;18.68;43.84;97426.41;10491043;28;20061;-56
2021/12/12 01:15:43;;;;;;;2.20;2.00;;;;;;;18.67;43.83;97421.31;10491374;28;20103;-56
2021/12/12 01:21:21;;;;;;;3.33;2.03;;;;;;;18.66;43.92;97441.28;10491034;28;20090;-55
2021/12/12 01:26:41;;;;;;;2.30;2.10;;;;;;;18.65;43.85;97442.41;10490174;28;20551;-56
2021/12/12 01:32:03;;;;;;;2.50;2.10;;;;;;;18.65;43.81;97439.69;10490411;28;20049;-56
2021/12/12 01:42:53;;;;;;;2.33;2.13;;;;;;;18.61;43.87;97422.50;10490382;28;20651;-56
2021/12/12 01:48:17;;;;;;;2.35;2.05;;;;;;;18.60;43.79;97416.31;10490044;28;20052;-55
2021/12/12 01:53:39;;;;;;;2.33;2.13;;;;;;;18.59;43.81;97409.31;10489961;28;20503;-56
2021/12/12 01:59:02;;;;;;;2.42;2.10;;;;;;;18.57;43.70;97415.00;10503045;28;20442;-56
2021/12/12 02:04:25;;;;;;;2.03;1.83;;;;;;;18.56;43.77;97404.50;10503243;28;20044;-56
2021/12/12 02:09:46;;;;;;;2.40;2.20;;;;;;;18.56;43.83;97404.50;10489242;28;20060;-55
2021/12/12 02:15:08;;;;;;;2.47;2.25;;;;;;;18.55;43.65;97402.94;10489143;28;20470;-54
2021/12/12 02:20:37;;;;;;;2.58;2.17;;;;;;;18.53;43.75;97402.44;10502548;28;20044;-56
2021/12/12 02:37:14;;;;;;;2.40;2.20;;;;;;;18.49;43.63;97412.25;10482416;28;20412;-56
2021/12/12 02:42:34;;;;;;;2.72;2.20;;;;;;;18.49;43.67;97413.03;10495710;28;20287;-56
2021/12/12 02:47:59;;;;;;;2.10;1.83;;;;;;;18.48;43.74;97426.81;10482268;28;20059;-55
2021/12/12 02:53:25;;;;;;;2.40;2.05;;;;;;;18.45;43.62;97425.53;10497017;28;20288;-56
2021/12/12 02:58:46;;;;;;;2.33;1.90;;;;;;;18.45;43.72;97430.94;10510412;28;20467;-55
2021/12/12 03:04:06;;;;;;;2.33;2.05;;;;;;;18.44;43.64;97440.09;10496676;28;20086;-55
2021/12/12 03:09:36;;;;;;;1.90;1.80;;;;;;;18.43;43.65;97443.91;10496125;28;20052;-56
2021/12/12 03:14:56;;;;;;;2.10;1.90;;;;;;;18.43;43.67;97456.63;10509741;28;20045;-56
2021/12/12 03:20:26;;;;;;;2.05;1.85;;;;;;;18.40;43.56;97455.28;10495388;28;20052;-56
2021/12/12 03:25:49;;;;;;;2.83;2.08;;;;;;;18.38;43.62;97458.31;10495151;28;20063;-56
2021/12/12 03:31:13;;;;;;;2.13;1.92;;;;;;;18.38;43.50;97465.59;10495262;28;20091;-56
2021/12/12 03:36:34;;;;;;;2.20;2.00;;;;;;;18.38;43.50;97452.91;10508611;28;20071;-56
2021/12/12 03:41:56;;;;;;;2.60;1.95;;;;;;;18.35;43.56;97458.91;10495167;28;20056;-56
2021/12/12 03:47:24;;;;;;;2.00;1.70;;;;;;;18.35;43.61;97448.13;10507666;28;20051;-55
2021/12/12 03:52:45;;;;;;;1.95;1.80;;;;;;;18.35;43.43;97458.91;10494635;28;20598;-56
2021/12/12 03:58:06;;;;;;;1.95;1.83;;;;;;;18.32;43.45;97462.19;10494568;28;20098;-55
2021/12/12 04:03:27;;;;;;;2.20;2.00;;;;;;;18.31;43.48;97460.59;10494303;28;20075;-55
2021/12/12 04:08:48;;;;;;;1.83;1.73;;;;;;;18.30;43.42;97464.38;10493407;28;20053;-55
2021/12/12 04:14:09;;;;;;;2.10;1.90;;;;;;;18.30;43.49;97463.59;10493871;28;20053;-56
2021/12/12 04:19:29;;;;;;;2.10;1.70;;;;;;;18.27;43.43;97475.78;10493720;28;20049;-55
2021/12/12 04:24:52;;;;;;;1.75;1.65;;;;;;;18.27;43.37;97477.66;10492906;28;20726;-56
2021/12/12 04:30:13;;;;;;;1.80;1.70;;;;;;;18.27;43.48;97481.19;10493061;28;20051;-55
2021/12/12 04:35:33;;;;;;;2.05;1.75;;;;;;;18.25;43.26;97488.78;10492782;28;20040;-55
2021/12/12 04:40:53;;;;;;;1.85;1.75;;;;;;;18.23;43.25;97490.16;10492504;28;20048;-55
2021/12/12 04:46:20;;;;;;;2.10;1.90;;;;;;;18.24;43.46;97495.25;10492469;28;20063;-56
2021/12/12 04:51:45;;;;;;;1.80;1.70;;;;;;;18.22;43.46;97500.16;10478234;28;20048;-56
2021/12/12 04:57:21;;;;;;;2.10;1.80;;;;;;;18.22;43.13;97502.06;10490896;28;20591;-55
2021/12/12 05:02:47;;;;;;;2.30;1.80;;;;;;;18.21;43.32;97516.63;10491815;28;20086;-56
2021/12/12 05:08:52;;;;;;;2.05;1.77;;;;;;;18.20;43.15;97521.22;10489996;28;20540;-56
2021/12/12 05:14:22;;;;;;;1.90;1.80;;;;;;;18.17;43.17;97516.44;10491094;28;20087;-56
2021/12/12 05:19:46;;;;;;;2.22;1.70;;;;;;;18.17;43.21;97516.44;10476311;28;20049;-55
2021/12/12 05:25:09;;;;;;;1.90;1.65;;;;;;;18.14;43.20;97512.41;10475771;28;20072;-55
2021/12/12 05:30:31;;;;;;;1.80;1.70;;;;;;;18.14;43.13;97517.81;10475853;28;20400;-56
2021/12/12 05:35:51;;;;;;;1.80;1.70;;;;;;;18.13;43.12;97518.94;10504047;28;20675;-55
2021/12/12 05:41:10;;;;;;;1.90;1.80;;;;;;;18.12;43.07;97519.22;10475602;28;20049;-56
2021/12/12 05:46:30;;;;;;;1.80;1.60;;;;;;;18.10;43.04;97521.41;10474875;28;20055;-56
2021/12/12 05:51:50;;;;;;;2.05;1.80;;;;;;;18.09;43.04;97515.22;10475000;28;20048;-56
2021/12/12 05:57:10;;;;;;;1.70;1.58;;;;;;;18.08;42.88;97518.22;10489316;28;20053;-56
2021/12/12 06:02:33;;;;;;;1.60;1.50;;;;;;;18.08;42.88;97518.22;10474091;28;20049;-55
2021/12/12 06:07:56;;;;;;;1.50;1.40;;;;;;;18.06;43.03;97536.59;10503114;28;20051;-55
2021/12/12 06:13:17;;;;;;;1.92;1.73;;;;;;;18.05;42.97;97551.16;10489750;28;20674;-56
2021/12/12 06:18:37;;;;;;;1.70;1.60;;;;;;;18.04;42.99;97560.34;10503096;28;20048;-56
2021/12/12 06:23:58;;;;;;;1.95;1.70;;;;;;;18.03;42.88;97569.53;10474184;28;20288;-56
2021/12/12 06:29:18;;;;;;;1.58;1.48;;;;;;;18.00;42.81;97573.63;10489412;28;20087;-56
2021/12/12 06:34:38;;;;;;;1.83;1.60;;;;;;;18.01;42.97;97577.09;10502444;28;20040;-56
2021/12/12 06:39:57;;;;;;;1.65;1.55;;;;;;;17.98;42.94;97589.28;10489029;28;20087;-55
2021/12/12 06:45:17;;;;;;;1.67;1.40;;;;;;;17.97;43.02;97601.16;10474090;28;20420;-56
2021/12/12 06:50:40;;;;;;;1.50;1.40;;;;;;;17.97;42.84;97599.28;10473879;28;20048;-56
2021/12/12 06:56:02;;;;;;;1.80;1.70;;;;;;;17.96;42.84;97607.66;10488913;28;20094;-56
2021/12/12 07:01:24;;;;;;;1.63;1.52;;;;;;;17.95;42.90;97614.13;10474050;28;20649;-56
2021/12/12 07:06:43;;;;;;;2.00;1.80;;;;;;;17.95;43.01;97624.91;10488464;28;20041;-56
2021/12/12 07:12:11;;;;;;;1.70;1.60;;;;;;;17.93;42.77;97619.81;10473464;28;20476;-56
2021/12/12 07:17:30;;;;;;;2.13;1.60;;;;;;;17.94;43.09;97623.31;10488710;28;20739;-56
2021/12/12 07:22:50;;;;;;;2.22;1.58;;;;;;;17.92;42.87;97623.59;10490514;28;20061;-56
2021/12/12 07:28:12;;;;;;;1.48;1.38;;;;;;;17.91;42.96;97630.06;10509489;28;20041;-56
2021/12/12 07:33:33;;;;;;;1.50;1.40;;;;;;;17.92;42.98;97636.28;10495844;28;20423;-55
2021/12/12 07:39:03;;;;;;;1.73;1.48;;;;;;;17.91;43.15;97631.97;10501669;28;20048;-56
2021/12/12 07:44:27;;;;;;;1.50;1.40;;;;;;;17.90;43.01;97641.19;10506574;28;20059;-56
2021/12/12 07:49:50;;;;;;;1.33;1.23;;;;;;;17.90;43.08;97643.88;10579241;28;20044;-56
2021/12/12 07:55:09;;;;;;;1.40;1.30;;;;;;;17.90;43.19;97649.25;10556187;28;20048;-55
2021/12/12 08:00:30;;;;;;;1.60;1.50;;;;;;;17.89;43.38;97647.66;10560287;28;20048;-56
2021/12/12 08:05:50;;;;;;;1.80;1.70;;;;;;;17.88;43.29;97649.56;10523477;28;20052;-55
2021/12/12 08:11:10;;;;;;;1.75;1.65;;;;;;;17.88;43.38;97646.84;10526932;28;20124;-56
2021/12/12 08:16:30;;;;;;;2.10;1.42;;;;;;;17.88;43.30;97649.56;10509786;28;20083;-55
2021/12/12 08:21:54;;;;;;;2.65;2.45;;;;;;;17.88;43.26;97660.34;10493704;28;20596;-56
2021/12/12 08:27:14;;;;;;;2.35;2.15;;;;;;;17.85;43.03;97660.91;10517661;28;20392;-56
2021/12/12 08:32:34;;;;;;;3.20;2.67;;;;;;;17.87;43.37;97666.81;10528037;28;20051;-56
2021/12/12 08:37:53;;;;;;;2.70;2.50;;;;;;;17.85;43.32;97682.47;10511654;28;20108;-56
2021/12/12 08:43:19;;;;;;;2.95;2.75;;;;;;;17.84;43.42;97675.50;10536044;28;20040;-55
2021/12/12 08:48:46;;;;;;;3.38;2.88;;;;;;;17.85;43.33;97678.97;10515729;28;20059;-56
2021/12/12 08:54:14;;;;;;;3.33;3.03;;;;;;;17.84;43.58;97670.09;10497746;28;20439;-56
2021/12/12 08:59:36;;;;;;;3.08;2.78;;;;;;;17.82;43.59;97683.03;10509229;28;20049;-56
2021/12/12 09:05:07;;;;;;;3.35;2.95;;;;;;;17.81;43.66;97681.41;10532416;28;20064;-55
2021/12/12 09:10:35;;;;;;;4.30;3.20;;;;;;;17.81;43.72;97680.63;10497452;28;20114;-56
2021/12/12 09:16:06;;;;;;;3.10;2.85;;;;;;;17.81;43.90;97669.84;10517362;28;20040;-55
2021/12/12 09:21:49;;;;;;;3.10;2.80;;;;;;;17.80;44.10;97679.84;10527700;28;20040;-55
2021/12/12 09:27:14;;;;;;;3.20;2.90;;;;;;;17.80;43.96;97669.06;10531999;28;20056;-56
2021/12/12 09:32:56;;;;;;;3.35;3.05;;;;;;;17.80;43.90;97669.06;10502923;28;20055;-56
2021/12/12 09:38:25;;;;;;;3.03;2.72;;;;;;;17.79;44.06;97662.03;10483714;28;20413;-56
2021/12/12 09:44:16;;;;;;;3.13;2.80;;;;;;;17.79;44.37;97664.75;10497829;28;20091;-54
2021/12/12 09:56:05;;;;;;;3.22;2.78;;;;;;;17.78;44.49;97657.75;10519047;28;20085;-56
2021/12/12 10:01:29;;;;;;;;;;;;;;;17.76;44.85;97647.25;10543346;28;20541;-56
2021/12/12 10:06:49;;;;;;;5.93;2.78;;;;;;;17.76;44.66;97644.56;10531695;28;20278;-55
2021/12/12 10:12:21;;;;;;;3.15;2.85;;;;;;;17.76;44.82;97644.56;10517598;28;20415;-56
2021/12/12 10:17:54;;;;;;;4.45;2.75;;;;;;;17.77;44.94;97642.66;10538945;28;20052;-56
2021/12/12 10:23:16;;;;;;;3.38;3.08;;;;;;;17.76;45.26;97649.97;10510008;28;20423;-56
2021/12/12 10:28:46;;;;;;;2.90;2.58;;;;;;;17.76;45.13;97646.47;10508900;28;20048;-56
2021/12/12 10:34:34;;;;;;;3.50;2.50;;;;;;;17.76;45.51;97654.56;10503071;28;20048;-55
2021/12/12 10:40:00;;;;;;;3.07;2.77;;;;;;;17.76;45.57;97641.09;10509266;28;20044;-56
2021/12/12 10:45:50;;;;;;;3.72;2.60;;;;;;;17.75;45.64;97640.25;10509539;28;20055;-56
2021/12/12 10:51:17;;;;;;;2.92;2.63;;;;;;;17.75;45.50;97639.47;10480384;28;20037;-56
2021/12/12 10:56:43;;;;;;;3.42;3.13;;;;;;;17.76;45.54;97638.38;10516926;28;20537;-56
2021/12/12 11:02:07;;;;;;;2.40;2.20;;;;;;;17.76;45.65;97631.09;10529830;28;20507;-56
2021/12/12 11:07:30;;;;;;;3.10;2.80;;;;;;;17.75;45.60;97626.78;10533727;28;20090;-56
2021/12/12 11:12:57;;;;;;;3.05;2.70;;;;;;;17.75;45.29;97628.69;10531105;28;20032;-56
2021/12/12 11:18:25;;;;;;;4.25;3.30;;;;;;;17.75;45.33;97624.09;10538252;28;20048;-56
2021/12/12 11:23:58;;;;;;;6.15;5.03;;;;;;;17.55;38.14;97622.50;10526850;28;20048;-56
2021/12/12 11:29:31;;;;;;;6.05;5.45;;;;;;;17.17;34.90;97624.31;10520310;28;20052;-56
2021/12/12 11:34:53;;;;;;;7.40;6.03;;;;;;;16.85;34.21;97617.69;10517672;28;20037;-56
2021/12/12 11:40:20;;;;;;;8.30;5.60;;;;;;;16.64;33.77;97627.03;10511611;28;20057;-58
2021/12/12 11:46:09;;;;;;;8.27;5.40;;;;;;;16.42;33.59;97620.25;10529171;28;20048;-55
2021/12/12 11:51:40;;;;;;;4.25;3.85;;;;;;;16.63;37.00;97609.31;10450551;28;20063;-54
2021/12/12 11:57:06;;;;;;;6.50;3.60;;;;;;;16.86;37.96;97597.00;10504683;28;20647;-55
2021/12/12 12:02:33;;;;;;;4.93;3.53;;;;;;;17.02;38.34;97598.41;10515058;28;20048;-55
2021/12/12 12:08:02;;;;;;;5.43;4.30;;;;;;;17.12;38.82;97600.97;10517447;28;20449;-55
2021/12/12 12:13:49;;;;;;;5.28;3.42;;;;;;;17.21;39.59;97601.16;10498203;28;20055;-55
2021/12/12 12:19:47;;;;;;;3.95;3.05;;;;;;;17.29;39.71;97599.66;10505435;28;20055;-55
2021/12/12 12:25:21;;;;;;;4.00;3.37;;;;;;;17.33;39.87;97585.34;10502709;28;20060;-55
2021/12/12 12:31:26;;;;;;;3.45;3.08;;;;;;;17.41;39.84;97591.19;10532472;28;20395;-55
2021/12/12 12:37:10;;;;;;;3.20;2.90;;;;;;;17.46;39.78;97585.72;10550066;28;20063;-55
2021/12/12 12:43:08;;;;;;;3.47;2.63;;;;;;;17.51;39.78;97581.06;10575957;28;20060;-55
2021/12/12 12:49:09;;;;;;;3.50;2.50;;;;;;;17.56;39.90;97599.03;10576049;28;20051;-55
2021/12/12 12:54:31;;;;;;;3.35;2.38;;;;;;;17.59;40.25;97593.88;10520972;28;20059;-55
2021/12/12 13:00:05;;;;;;;2.88;2.53;;;;;;;17.63;40.17;97590.59;10522793;28;20052;-55
2021/12/12 13:05:48;;;;;;;3.53;2.60;;;;;;;17.66;40.16;97604.31;10532661;28;20499;-55
2021/12/12 13:11:11;;;;;;;2.88;2.40;;;;;;;17.68;40.43;97607.50;10542434;28;20036;-55
2021/12/12 13:17:11;;;;;;;2.30;2.05;;;;;;;17.70;40.72;97602.63;10518022;28;20063;-55
2021/12/12 13:22:36;;;;;;;2.90;2.35;;;;;;;17.73;40.65;97598.53;10548053;28;20045;-55
2021/12/12 13:28:09;;;;;;;2.83;2.45;;;;;;;17.73;40.78;97593.94;10516039;28;20109;-55
2021/12/12 13:33:39;;;;;;;3.05;2.60;;;;;;;17.76;40.78;97587.97;10466790;28;20503;-54
2021/12/12 13:39:09;;;;;;;2.47;2.15;;;;;;;17.76;40.92;97592.56;10477946;28;20044;-55
2021/12/12 13:44:31;;;;;;;2.38;1.95;;;;;;;17.77;40.96;97600.34;10540772;28;20052;-55
2021/12/12 13:50:04;;;;;;;4.88;1.90;;;;;;;17.79;41.00;97602.75;10501776;28;20048;-55
2021/12/12 13:55:30;;;;;;;3.78;2.20;;;;;;;17.79;41.26;97592.75;10500928;28;20040;-56
2021/12/12 14:01:01;;;;;;;2.58;1.90;;;;;;;17.80;41.25;97593.59;10527045;28;20514;-55
2021/12/12 14:06:21;;;;;;;4.50;2.35;;;;;;;17.82;41.22;97607.56;10516076;28;20109;-55
2021/12/12 14:11:43;;;;;;;2.65;2.05;;;;;;;17.83;41.26;97609.16;10515377;28;20040;-55
2021/12/12 14:17:09;;;;;;;3.47;2.10;;;;;;;17.85;41.33;97616.97;10529425;28;20040;-55
2021/12/12 14:22:29;;;;;;;1.90;1.80;;;;;;;17.85;41.52;97633.94;10525976;28;20056;-55
2021/12/12 14:27:54;;;;;;;2.28;1.83;;;;;;;17.86;41.59;97629.38;10518239;28;20093;-54
2021/12/12 14:33:19;;;;;;;2.53;2.17;;;;;;;17.85;41.78;97633.94;10583947;28;20039;-55
2021/12/12 14:38:39;;;;;;;2.40;1.90;;;;;;;17.85;41.70;97625.88;10587285;28;20052;-55
2021/12/12 14:44:01;;;;;;;2.20;2.00;;;;;;;17.85;41.80;97628.56;10563401;28;20051;-55
2021/12/12 14:49:29;;;;;;;2.75;1.90;;;;;;;17.86;41.78;97637.47;10529359;28;20093;-55
2021/12/12 14:55:14;;;;;;;2.05;1.85;;;;;;;17.86;41.78;97640.97;10574952;28;20486;-55
2021/12/12 15:00:42;;;;;;;2.80;1.98;;;;;;;17.86;41.84;97642.84;10586723;28;20044;-55
2021/12/12 15:06:08;;;;;;;4.53;2.00;;;;;;;17.86;41.86;97645.56;10586263;28;20055;-55
2021/12/12 15:11:34;;;;;;;1.88;1.77;;;;;;;17.86;41.94;97635.56;10570202;28;20058;-55
2021/12/12 15:16:56;;;;;;;1.70;1.60;;;;;;;17.87;42.00;97639.06;10579750;28;20052;-55
2021/12/12 15:22:18;;;;;;;2.00;1.58;;;;;;;17.85;41.85;97612.38;10528389;28;20043;-55
2021/12/12 15:27:41;;;;;;;2.47;2.15;;;;;;;17.86;41.97;97594.34;10543648;28;20458;-55
2021/12/12 15:33:08;;;;;;;2.28;1.60;;;;;;;17.85;41.83;97601.59;10528168;28;20675;-55
2021/12/12 15:38:29;;;;;;;2.10;1.77;;;;;;;17.84;41.92;97605.41;10543648;28;20070;-55
2021/12/12 15:43:57;;;;;;;2.47;1.80;;;;;;;17.85;42.13;97616.97;10522661;28;20079;-55
2021/12/12 15:49:20;;;;;;;1.65;1.55;;;;;;;17.84;41.89;97628.84;10536561;28;20048;-55
2021/12/12 15:54:40;;;;;;;1.77;1.67;;;;;;;17.84;42.14;97610.78;10535812;28;20086;-55
2021/12/12 16:00:12;;;;;;;2.92;2.10;;;;;;;17.83;42.15;97598.38;10534290;28;20530;-55
2021/12/12 16:05:40;;;;;;;1.50;1.40;;;;;;;17.84;42.24;97604.59;10537976;28;20048;-55
2021/12/12 16:11:01;;;;;;;1.85;1.60;;;;;;;17.82;42.18;97615.66;10535757;28;20392;-55
2021/12/12 16:16:24;;;;;;;2.10;1.60;;;;;;;17.81;42.16;97616.72;10535464;28;20415;-55
2021/12/12 16:21:49;;;;;;;2.22;1.70;;;;;;;17.80;42.08;97609.75;10535492;28;20052;-56
2021/12/12 16:27:19;;;;;;;1.60;1.50;;;;;;;17.80;42.05;97615.16;10531182;28;20044;-55
2021/12/12 16:32:43;;;;;;;1.50;1.40;;;;;;;17.80;42.03;97615.16;10535012;28;20052;-55
2021/12/12 16:38:10;;;;;;;2.08;1.60;;;;;;;17.80;42.07;97604.38;10533656;28;20048;-55
2021/12/12 16:43:36;;;;;;;2.30;1.60;;;;;;;17.79;42.14;97600.84;10529397;28;20044;-54
2021/12/12 16:48:59;;;;;;;1.70;1.50;;;;;;;17.78;42.23;97595.78;10534263;28;20453;-55
2021/12/12 16:54:25;;;;;;;1.55;1.45;;;;;;;17.78;42.15;97590.38;10534285;28;20054;-55
2021/12/12 16:59:46;;;;;;;2.15;1.60;;;;;;;17.78;42.21;97595.78;10529496;28;20105;-55
2021/12/12 17:05:08;;;;;;;1.63;1.40;;;;;;;17.77;42.14;97600.34;10510503;28;20047;-55
2021/12/12 17:10:29;;;;;;;2.10;1.40;;;;;;;17.77;42.29;97596.84;10529727;28;20040;-55
2021/12/12 17:15:51;;;;;;;1.40;1.30;;;;;;;17.76;42.12;97595.25;10526715;28;20079;-55
2021/12/12 17:21:18;;;;;;;1.40;1.30;;;;;;;17.75;42.15;97597.13;10516418;28;20040;-54
2021/12/12 17:26:39;;;;;;;1.83;1.48;;;;;;;17.75;42.21;97583.66;10498569;28;20058;-55
2021/12/12 17:32:04;;;;;;;2.80;1.42;;;;;;;17.74;42.25;97590.16;10528827;28;20047;-55
2021/12/12 17:37:26;;;;;;;1.65;1.40;;;;;;;17.74;42.22;97583.97;10526307;28;20052;-55
2021/12/12 17:42:56;;;;;;;1.35;1.25;;;;;;;17.73;42.02;97564.28;10535430;28;20484;-55
2021/12/12 17:48:53;;;;;;;1.60;1.30;;;;;;;17.71;42.15;97563.78;10522975;28;20052;-55
2021/12/12 17:54:16;;;;;;;2.50;1.30;;;;;;;17.72;42.26;97578.88;10497762;28;20091;-55
2021/12/12 17:59:51;;;;;;;3.92;1.90;;;;;;;17.60;39.46;97570.41;10523285;28;20442;-55
2021/12/12 18:05:19;;;;;;;1.65;1.55;;;;;;;17.57;40.24;97569.13;10497416;28;20051;-54
2021/12/12 18:10:45;;;;;;;2.00;1.50;;;;;;;17.57;40.33;97569.13;10487449;28;20711;-54
2021/12/12 18:16:08;;;;;;;2.67;1.70;;;;;;;17.58;40.69;97568.03;10496559;28;20067;-55
2021/12/12 18:21:33;;;;;;;5.68;1.85;;;;;;;17.60;40.78;97559.63;10509166;28;20044;-55
2021/12/12 18:27:02;;;;;;;2.85;1.30;;;;;;;17.61;40.96;97547.00;10523552;28;20053;-54
2021/12/12 18:32:45;;;;;;;4.28;1.70;;;;;;;17.62;41.19;97554.78;10521525;28;20033;-54
2021/12/12 18:38:12;;;;;;;2.40;1.60;;;;;;;17.64;41.39;97554.47;10519714;28;20063;-55
2021/12/12 18:43:37;;;;;;;2.25;1.60;;;;;;;17.66;41.70;97561.19;10497150;28;20599;-55
2021/12/12 18:49:02;;;;;;;4.43;1.48;;;;;;;17.68;41.93;97553.59;10507373;28;20052;-54
2021/12/12 18:54:30;;;;;;;6.47;1.50;;;;;;;17.71;43.14;97550.31;10509032;28;20596;-54
2021/12/12 19:00:01;;;;;;;4.97;2.00;;;;;;;17.76;43.76;97560.22;10520771;28;20055;-57
2021/12/12 19:05:27;;;;;;;4.72;1.88;;;;;;;17.80;45.34;97545.06;10516384;28;20048;-57
2021/12/12 19:10:55;;;;;;;5.95;1.90;;;;;;;17.85;45.52;97553.09;10522777;28;20051;-57
2021/12/12 19:16:19;;;;;;;3.97;2.10;;;;;;;17.92;45.86;97545.44;10519325;28;20485;-55
2021/12/12 19:21:41;;;;;;;5.40;1.90;;;;;;;17.97;45.89;97545.34;10529270;28;20419;-58
2021/12/12 19:27:05;;;;;;;4.40;2.10;;;;;;;18.03;45.80;97546.03;10527584;28;20055;-56
2021/12/12 19:32:32;;;;;;;6.32;1.83;;;;;;;18.08;45.70;97545.19;10515741;28;20412;-54
2021/12/12 19:37:58;;;;;;;4.05;1.80;;;;;;;18.13;45.96;97543.19;10522723;28;20511;-53
2021/12/12 19:43:30;;;;;;;5.07;1.80;;;;;;;18.20;45.87;97550.09;10526448;28;20101;-60
2021/12/12 19:48:52;;;;;;;6.22;1.77;;;;;;;18.28;46.06;97552.09;10521069;28;20047;-53
2021/12/12 19:54:21;;;;;;;5.75;2.08;;;;;;;18.34;45.94;97559.00;10514784;28;20036;-54
2021/12/12 19:59:44;;;;;;;3.50;1.77;;;;;;;18.39;45.90;97564.31;10513412;28;20044;-54
2021/12/12 20:05:06;;;;;;;2.17;1.70;;;;;;;18.44;45.86;97561.50;10531635;28;20048;-53
2021/12/12 20:10:28;;;;;;;5.55;1.70;;;;;;;18.49;45.75;97561.44;10529400;28;20047;-54
2021/12/12 20:15:47;;;;;;;4.25;1.60;;;;;;;18.55;45.75;97568.31;10544842;28;20043;-54
2021/12/12 20:21:08;;;;;;;3.42;1.80;;;;;;;18.62;45.76;97570.66;10517577;28;20048;-54
2021/12/12 20:26:28;;;;;;;2.28;1.63;;;;;;;18.68;45.61;97564.03;10526777;28;20700;-54
2021/12/12 20:31:48;;;;;;;2.22;1.42;;;;;;;18.74;45.51;97562.84;10511413;28;20391;-54
2021/12/12 20:37:09;;;;;;;2.40;1.65;;;;;;;18.81;45.74;97557.06;10532386;28;20043;-56
2021/12/12 20:42:36;;;;;;;5.47;1.77;;;;;;;18.89;45.47;97559.06;10512171;28;20433;-54
2021/12/12 20:48:02;;;;;;;1.60;1.50;;;;;;;18.98;45.67;97551.06;10528076;28;20048;-57
2021/12/12 20:53:53;;;;;;;3.92;1.48;;;;;;;19.05;46.06;97562.25;10527943;28;20048;-56
2021/12/12 20:59:26;;;;;;;2.80;1.60;;;;;;;19.13;45.54;97564.25;10500928;28;20056;-55
2021/12/12 21:05:16;;;;;;;4.30;1.77;;;;;;;19.21;45.87;97559.22;10502361;28;20067;-56
2021/12/12 21:10:41;;;;;;;1.98;1.40;;;;;;;19.28;45.32;97559.63;10528080;28;20387;-56
2021/12/12 21:16:10;;;;;;;2.10;1.50;;;;;;;19.34;45.26;97558.38;10512224;28;20059;-58
2021/12/12 21:21:33;;;;;;;2.10;1.30;;;;;;;19.41;45.19;97558.78;10497095;28;20399;-54
2021/12/12 21:26:57;;;;;;;1.75;1.10;;;;;;;19.49;45.21;97559.97;10551173;28;20556;-53
2021/12/12 21:32:16;;;;;;;69.93;28.15;;;;;;;19.55;45.02;97556.03;10528558;28;20047;-54
2021/12/12 21:37:36;;;;;;;37.22;17.13;;;;;;;19.61;44.87;97551.31;10500468;28;20056;-54
2021/12/12 21:43:00;;;;;;;29.98;13.30;;;;;;;19.65;44.68;97541.50;10516946;28;20040;-55
2021/12/12 21:48:24;;;;;;;31.25;11.40;;;;;;;19.69;44.52;97531.66;10505958;28;20044;-54
2021/12/12 21:53:43;;;;;;;27.33;10.95;;;;;;;19.76;44.56;97526.66;10509541;28;20044;-55
2021/12/12 21:59:06;;;;;;;20.65;8.88;;;;;;;19.81;44.37;97521.09;10510161;28;20060;-55
2021/12/12 22:04:29;;;;;;;20.80;9.18;;;;;;;19.87;44.19;97522.56;10534921;28;20082;-55
2021/12/12 22:09:52;;;;;;;20.13;8.95;;;;;;;19.90;44.21;97529.28;10527760;28;20422;-55
2021/12/12 22:15:13;;;;;;;15.68;7.78;;;;;;;19.92;43.78;97524.38;10542275;28;20044;-56
2021/12/12 22:20:35;;;;;;;18.13;7.80;;;;;;;19.95;43.72;97524.56;10525412;28;20048;-55
2021/12/12 22:25:57;;;;;;;16.50;7.53;;;;;;;19.97;43.57;97510.72;10529411;28;20071;-55
2021/12/12 22:31:22;;;;;;;14.80;6.95;;;;;;;20.01;43.78;97513.59;10509425;28;20625;-55
2021/12/12 22:36:49;;;;;;;15.82;6.85;;;;;;;20.02;43.82;97513.28;10534779;28;20037;-55
2021/12/12 22:42:18;;;;;;;14.60;6.43;;;;;;;20.03;44.02;97509.50;10523149;28;20040;-55
2021/12/12 22:47:45;;;;;;;13.02;6.38;;;;;;;20.06;43.87;97513.47;10541730;28;20040;-55
2021/12/12 22:53:09;;;;;;;13.43;6.18;;;;;;;20.07;43.93;97509.66;10512306;28;20494;-55
2021/12/12 22:58:36;;;;;;;11.77;5.97;;;;;;;20.08;43.75;97513.97;10521562;28;20052;-56
2021/12/12 23:04:07;;;;;;;10.50;5.60;;;;;;;20.08;43.91;97505.84;10523503;28;20051;-55
2021/12/12 23:09:31;;;;;;;10.82;5.70;;;;;;;20.10;43.93;97506.34;10536152;28;20056;-55
2021/12/12 23:14:56;;;;;;;10.30;5.70;;;;;;;20.11;44.10;97505.22;10522424;28;20470;-55
2021/12/12 23:20:28;;;;;;;11.45;5.57;;;;;;;20.10;43.98;97499.00;10519529;28;20076;-55
2021/12/12 23:25:48;;;;;;;10.02;5.32;;;;;;;20.12;43.97;97501.41;10515646;28;20064;-55
2021/12/12 23:31:11;;;;;;;10.50;5.43;;;;;;;20.12;43.91;97506.81;10490090;28;20079;-55
2021/12/12 23:36:32;;;;;;;11.02;5.18;;;;;;;20.11;43.96;97503.31;10501488;28;20036;-55
2021/12/12 23:42:07;;;;;;;10.98;5.53;;;;;;;20.13;43.91;97503.00;10530566;28;20102;-55
2021/12/12 23:47:32;;;;;;;10.90;5.57;;;;;;;20.12;43.70;97507.63;10510999;28;20044;-55
2021/12/12 23:52:55;;;;;;;9.65;5.10;;;;;;;20.12;43.80;97501.41;10499349;28;20618;-55
2021/12/12 23:58:18;;;;;;;7.93;4.82;;;;;;;20.11;43.65;97503.31;10507480;28;20635;-55
